Time;durP1;ratioP1;P1;durP2;ratioP2;P2;SDS_P1;SDS_P2;PMS_P1;PMS_P2;Temp;Humidity;BMP_temperature;BMP_pressure;BME280_temperature;BME280_humidity;BME280_pressure;Samples;Min_cycle;Max_cycle;Signal;HPM_P1;HPM_P2
2021/12/13 00:01:52;;;;;;;194.13;34.22;;;8.80;99.90;;;;;;6220509;23;20019;-79
2021/12/13 00:04:32;;;;;;;204.18;33.60;;;8.80;99.90;;;;;;6220875;23;20024;-79
2021/12/13 00:07:07;;;;;;;213.05;35.85;;;8.80;99.90;;;;;;6221569;23;20019;-79
2021/12/13 00:09:41;;;;;;;196.35;35.28;;;8.90;99.90;;;;;;6222796;23;20465;-79
2021/12/13 00:12:08;;;;;;;219.18;35.83;;;8.90;99.90;;;;;;6221737;23;20020;-79
2021/12/13 00:14:47;;;;;;;192.95;33.60;;;8.90;99.90;;;;;;6222375;23;20036;-79
2021/12/13 00:17:25;;;;;;;178.95;33.38;;;8.90;99.90;;;;;;6222199;23;20035;-79
2021/12/13 00:20:27;;;;;;;147.88;30.67;;;8.90;99.90;;;;;;6222034;23;20008;-79
2021/12/13 00:23:03;;;;;;;163.75;31.83;;;8.90;99.90;;;;;;6197877;23;20117;-79
2021/12/13 00:25:30;;;;;;;155.40;30.25;;;8.90;99.90;;;;;;6221250;23;20445;-79
2021/12/13 00:27:57;;;;;;;161.65;31.25;;;8.90;99.90;;;;;;6173423;23;20095;-79
2021/12/13 00:30:37;;;;;;;145.95;29.17;;;8.90;99.90;;;;;;6223498;23;20070;-79
2021/12/13 00:33:42;;;;;;;117.90;27.25;;;8.80;99.90;;;;;;6222386;23;20089;-79
2021/12/13 00:36:15;;;;;;;168.75;29.63;;;8.80;99.90;;;;;;6221961;23;20027;-79
2021/12/13 00:38:47;;;;;;;152.15;29.23;;;8.80;99.90;;;;;;6222817;23;20016;-79
2021/12/13 00:41:18;;;;;;;135.95;27.70;;;8.80;99.90;;;;;;6222530;23;20012;-79
2021/12/13 00:43:54;;;;;;;124.38;27.45;;;8.80;99.90;;;;;;6223197;23;20329;-79
2021/12/13 00:46:24;;;;;;;126.25;28.17;;;8.70;99.90;;;;;;6197500;23;20012;-79
2021/12/13 00:48:53;;;;;;;136.32;28.52;;;8.80;99.90;;;;;;6222999;23;20083;-79
2021/12/13 00:51:33;;;;;;;146.90;30.42;;;8.80;99.90;;;;;;6223957;23;20016;-79
2021/12/13 00:54:03;;;;;;;143.93;29.10;;;8.80;99.90;;;;;;6222989;23;20008;-80
2021/12/13 00:57:24;;;;;;;142.60;29.42;;;8.80;99.90;;;;;;6199251;23;20023;-80
2021/12/13 01:00:04;;;;;;;144.07;29.38;;;8.80;99.90;;;;;;6136837;23;20023;-80
2021/12/13 01:02:42;;;;;;;159.05;32.47;;;8.80;99.90;;;;;;6223655;23;20016;-80
2021/12/13 01:05:12;;;;;;;131.95;29.40;;;8.70;99.90;;;;;;6197888;23;20082;-80
2021/12/13 01:07:57;;;;;;;171.65;32.92;;;8.80;99.90;;;;;;6225040;23;20051;-80
2021/12/13 01:10:49;;;;;;;155.93;33.30;;;8.80;99.90;;;;;;6224372;23;20055;-80
2021/12/13 01:13:23;;;;;;;191.93;36.30;;;8.80;99.90;;;;;;6223936;23;20121;-80
2021/12/13 01:16:23;;;;;;;191.85;37.97;;;8.80;99.90;;;;;;6197975;23;20023;-80
2021/12/13 01:19:01;;;;;;;174.02;34.78;;;8.80;99.90;;;;;;6221609;23;20012;-80
2021/12/13 01:21:59;;;;;;;170.85;35.75;;;8.70;99.90;;;;;;6222824;23;20020;-80
2021/12/13 01:27:32;;;;;;;158.60;35.55;;;8.80;99.90;;;;;;6224614;23;20020;-80
2021/12/13 01:29:58;;;;;;;179.80;36.50;;;8.80;99.90;;;;;;6199008;23;20043;-80
2021/12/13 01:32:34;;;;;;;169.57;36.30;;;8.80;99.90;;;;;;6198772;23;20063;-80
2021/12/13 01:35:00;;;;;;;160.25;35.58;;;8.90;99.90;;;;;;6225075;23;20023;-80
2021/12/13 01:37:30;;;;;;;152.55;34.63;;;8.90;99.90;;;;;;6174949;23;20535;-80
2021/12/13 01:39:57;;;;;;;147.25;35.63;;;8.80;99.90;;;;;;6223524;23;20146;-78
2021/12/13 01:42:29;;;;;;;133.43;32.33;;;8.90;99.90;;;;;;6195544;23;20024;-78
2021/12/13 01:44:58;;;;;;;114.88;30.85;;;8.90;99.90;;;;;;6218768;23;20070;-78
2021/12/13 01:47:31;;;;;;;128.73;32.08;;;8.80;99.90;;;;;;6191379;23;20131;-78
2021/12/13 01:50:21;;;;;;;114.53;32.35;;;8.90;99.90;;;;;;6216726;23;20016;-78
2021/12/13 01:52:50;;;;;;;106.40;30.23;;;8.90;99.90;;;;;;6217858;23;20012;-78
2021/12/13 01:55:25;;;;;;;103.13;27.88;;;8.80;99.90;;;;;;6216832;23;20016;-78
2021/12/13 02:01:22;;;;;;;93.45;27.23;;;8.90;99.90;;;;;;6203395;23;20345;-78
2021/12/13 02:04:04;;;;;;;100.30;28.10;;;8.90;99.90;;;;;;6217357;23;20008;-78
2021/12/13 02:06:33;;;;;;;99.50;26.58;;;8.90;99.90;;;;;;6218041;23;20016;-78
2021/12/13 02:09:05;;;;;;;91.95;25.10;;;8.90;99.90;;;;;;6192362;23;20012;-78
2021/12/13 02:11:32;;;;;;;83.07;25.23;;;8.90;99.90;;;;;;6190611;23;20016;-78
2021/12/13 02:14:08;;;;;;;84.93;25.37;;;8.90;99.90;;;;;;6168134;23;20376;-78
2021/12/13 02:17:01;;;;;;;82.30;23.50;;;8.90;99.90;;;;;;6218370;23;20250;-78
2021/12/13 02:19:49;;;;;;;86.43;23.83;;;8.90;99.90;;;;;;6217315;23;20858;-78
2021/12/13 02:22:38;;;;;;;75.43;21.33;;;8.90;99.90;;;;;;6217543;23;20012;-78
2021/12/13 02:25:09;;;;;;;86.40;23.63;;;8.80;99.90;;;;;;6216679;23;20016;-78
2021/12/13 02:27:37;;;;;;;72.45;21.27;;;8.80;99.90;;;;;;6216649;23;20525;-78
2021/12/13 02:30:34;;;;;;;69.07;21.23;;;8.80;99.90;;;;;;6190787;23;20472;-78
2021/12/13 02:33:01;;;;;;;72.47;22.15;;;8.80;99.90;;;;;;6188864;23;20416;-78
2021/12/13 02:35:31;;;;;;;71.20;21.20;;;8.80;99.90;;;;;;6166148;23;20074;-78
2021/12/13 02:37:58;;;;;;;82.03;22.15;;;8.90;99.90;;;;;;6215444;23;20027;-78
2021/12/13 02:40:24;;;;;;;75.00;21.48;;;8.90;99.90;;;;;;6164414;23;20069;-78
2021/12/13 02:42:51;;;;;;;65.53;21.77;;;8.90;99.90;;;;;;6189704;23;20012;-78
2021/12/13 02:45:39;;;;;;;72.07;21.65;;;8.90;99.90;;;;;;6165048;23;20692;-78
2021/12/13 02:48:10;;;;;;;68.82;20.48;;;8.80;99.90;;;;;;6214400;23;20468;-78
2021/12/13 02:50:49;;;;;;;70.32;20.85;;;8.80;99.90;;;;;;6214712;23;20348;-78
2021/12/13 02:53:18;;;;;;;66.78;21.48;;;8.80;99.90;;;;;;6189982;23;20016;-78
2021/12/13 02:55:44;;;;;;;59.70;19.77;;;8.80;99.90;;;;;;6215407;23;20396;-78
2021/12/13 02:58:13;;;;;;;84.77;22.53;;;8.80;99.90;;;;;;6214727;23;20023;-78
2021/12/13 03:01:08;;;;;;;69.00;21.90;;;8.80;99.90;;;;;;6190061;23;20012;-79
2021/12/13 03:03:41;;;;;;;74.90;22.90;;;8.80;99.90;;;;;;6216718;23;20488;-79
2021/12/13 03:06:09;;;;;;;69.07;22.15;;;8.70;99.90;;;;;;6213972;23;20079;-78
2021/12/13 03:08:43;;;;;;;75.13;22.60;;;8.70;99.90;;;;;;6214731;23;20020;-78
2021/12/13 03:11:32;;;;;;;68.25;21.98;;;8.70;99.90;;;;;;6214077;23;20016;-78
2021/12/13 03:14:20;;;;;;;68.20;21.27;;;8.70;99.90;;;;;;6215035;23;20012;-78
2021/12/13 03:16:48;;;;;;;68.53;20.45;;;8.70;99.90;;;;;;6189748;23;20070;-78
2021/12/13 03:19:32;;;;;;;59.08;19.52;;;8.60;99.90;;;;;;6213524;23;20013;-78
2021/12/13 03:22:34;;;;;;;63.45;19.38;;;8.60;99.90;;;;;;6189367;23;20095;-78
2021/12/13 03:25:28;;;;;;;59.63;17.35;;;8.50;99.90;;;;;;6190038;23;20051;-78
2021/12/13 03:28:22;;;;;;;50.85;16.67;;;8.50;99.90;;;;;;6213369;23;20076;-78
2021/12/13 03:30:56;;;;;;;55.00;15.52;;;8.50;99.90;;;;;;6189235;23;20020;-78
2021/12/13 03:33:41;;;;;;;45.67;13.70;;;8.50;99.90;;;;;;6213796;23;20016;-78
2021/12/13 03:36:12;;;;;;;44.70;13.20;;;8.50;99.90;;;;;;6214537;23;20150;-78
2021/12/13 03:38:47;;;;;;;40.38;11.90;;;8.50;99.90;;;;;;6188866;23;20012;-78
2021/12/13 03:41:18;;;;;;;31.77;11.82;;;8.40;99.90;;;;;;6213988;23;20012;-78
2021/12/13 03:43:53;;;;;;;38.33;11.63;;;8.40;99.90;;;;;;6189651;23;20020;-79
2021/12/13 03:46:20;;;;;;;;;;;8.40;99.90;;;;;;6189678;23;20063;-78
2021/12/13 03:48:48;;;;;;;27.92;9.27;;;8.40;99.90;;;;;;6214469;23;19915;-78
2021/12/13 03:51:18;;;;;;;31.33;9.75;;;8.40;99.90;;;;;;6165222;23;20012;-78
2021/12/13 03:53:48;;;;;;;26.00;8.50;;;8.40;99.90;;;;;;6190460;23;20349;-78
2021/12/13 03:56:20;;;;;;;30.15;9.68;;;8.40;99.90;;;;;;6189957;23;20012;-78
2021/12/13 03:58:51;;;;;;;27.50;10.10;;;8.40;99.90;;;;;;6189338;23;20257;-78
2021/12/13 04:01:21;;;;;;;26.63;8.52;;;8.40;99.90;;;;;;6214757;23;20230;-78
2021/12/13 04:03:49;;;;;;;30.25;9.85;;;8.40;99.90;;;;;;6192321;23;20111;-78
2021/12/13 04:06:17;;;;;;;20.70;7.80;;;8.40;99.90;;;;;;6167086;23;20016;-78
2021/12/13 04:08:49;;;;;;;24.75;9.30;;;8.40;99.90;;;;;;6165941;23;20016;-78
2021/12/13 04:11:16;;;;;;;25.77;10.70;;;8.40;99.90;;;;;;6216580;23;20016;-78
2021/12/13 04:13:47;;;;;;;23.58;9.88;;;8.40;99.90;;;;;;6167523;23;20020;-78
2021/12/13 04:16:36;;;;;;;24.00;10.00;;;8.30;99.90;;;;;;6192251;23;20042;-78
2021/12/13 04:19:08;;;;;;;22.00;9.50;;;8.30;99.90;;;;;;6191602;23;20020;-78
2021/12/13 04:21:48;;;;;;;24.77;10.20;;;8.30;99.90;;;;;;6192616;23;20009;-78
2021/12/13 04:24:26;;;;;;;15.75;9.93;;;8.30;99.90;;;;;;6214904;23;20016;-78
2021/12/13 04:26:56;;;;;;;23.45;10.48;;;8.30;99.90;;;;;;6214612;23;20023;-78
2021/12/13 04:29:31;;;;;;;22.15;10.93;;;8.30;99.90;;;;;;6215797;23;20048;-78
2021/12/13 04:31:58;;;;;;;;;;;8.30;99.90;;;;;;6215840;23;20016;-78
2021/12/13 04:34:27;;;;;;;22.60;11.52;;;8.30;99.90;;;;;;6215988;23;19916;-78
2021/12/13 04:36:55;;;;;;;20.13;11.25;;;8.30;99.90;;;;;;6215293;23;20009;-78
2021/12/13 04:39:33;;;;;;;21.45;12.10;;;8.30;99.90;;;;;;6214503;23;20021;-78
2021/12/13 04:42:07;;;;;;;24.63;12.30;;;8.20;99.90;;;;;;6214443;23;20052;-78
2021/12/13 04:44:35;;;;;;;23.08;12.02;;;8.30;99.90;;;;;;6213864;23;20020;-78
2021/12/13 04:47:23;;;;;;;20.23;11.05;;;8.20;99.90;;;;;;6188770;23;20016;-78
2021/12/13 04:50:05;;;;;;;23.85;11.10;;;8.30;99.90;;;;;;6214053;23;20625;-78
2021/12/13 04:52:33;;;;;;;23.35;11.05;;;8.30;99.90;;;;;;6214127;23;20020;-78
2021/12/13 04:54:59;;;;;;;17.55;10.55;;;8.30;99.90;;;;;;6166693;23;20016;-78
2021/12/13 04:57:26;;;;;;;24.30;11.27;;;8.20;99.90;;;;;;6214091;23;20296;-78
2021/12/13 04:59:57;;;;;;;21.80;11.48;;;8.30;99.90;;;;;;6191451;23;20012;-78
2021/12/13 05:02:24;;;;;;;19.80;10.88;;;8.30;99.90;;;;;;6217019;22;20016;-78
2021/12/13 05:04:56;;;;;;;23.55;12.30;;;8.30;99.90;;;;;;6192905;23;20016;-78
2021/12/13 05:07:25;;;;;;;20.63;11.35;;;8.30;99.90;;;;;;6192037;23;20020;-78
2021/12/13 05:09:52;;;;;;;22.40;12.30;;;8.30;99.90;;;;;;6218777;23;20043;-79
2021/12/13 05:12:22;;;;;;;25.83;12.52;;;8.30;99.90;;;;;;6219742;23;20012;-79
2021/12/13 05:14:54;;;;;;;23.65;12.38;;;8.30;99.90;;;;;;6171352;23;20018;-79
2021/12/13 05:17:31;;;;;;;24.65;12.88;;;8.30;99.90;;;;;;6219300;23;20441;-78
2021/12/13 05:20:19;;;;;;;23.10;14.00;;;8.30;99.90;;;;;;6220493;23;20020;-78
2021/12/13 05:23:01;;;;;;;21.48;13.13;;;8.30;99.90;;;;;;6221518;23;20012;-78
2021/12/13 05:25:42;;;;;;;24.08;13.73;;;8.30;99.90;;;;;;6221563;23;20028;-79
2021/12/13 05:28:14;;;;;;;25.20;13.73;;;8.30;99.90;;;;;;6194812;23;20016;-79
2021/12/13 05:30:58;;;;;;;27.38;13.30;;;8.30;99.90;;;;;;6221359;23;20050;-79
2021/12/13 05:33:28;;;;;;;22.17;12.55;;;8.30;99.90;;;;;;6221727;23;20020;-79
2021/12/13 05:35:58;;;;;;;23.02;12.98;;;8.30;99.90;;;;;;6222596;23;20115;-79
2021/12/13 05:38:42;;;;;;;24.23;13.02;;;8.20;99.90;;;;;;6221044;23;20457;-78
2021/12/13 05:41:22;;;;;;;24.45;12.13;;;8.20;99.90;;;;;;6220777;23;20008;-78
2021/12/13 05:43:51;;;;;;;21.73;11.57;;;8.20;99.90;;;;;;6221810;23;20488;-78
2021/12/13 05:46:26;;;;;;;23.38;11.27;;;8.20;99.90;;;;;;6220943;23;20016;-78
2021/12/13 05:48:55;;;;;;;20.50;10.85;;;8.20;99.90;;;;;;6196148;23;20012;-78
2021/12/13 05:51:26;;;;;;;23.38;10.73;;;8.20;99.90;;;;;;6220818;23;20063;-78
2021/12/13 05:53:58;;;;;;;16.65;10.57;;;8.20;99.90;;;;;;6197316;23;20043;-78
2021/12/13 05:56:28;;;;;;;20.25;10.80;;;8.20;99.90;;;;;;6222762;23;20016;-78
2021/12/13 05:59:09;;;;;;;18.88;10.57;;;8.20;99.90;;;;;;6221843;23;20027;-78
2021/12/13 06:02:23;;;;;;;20.30;10.80;;;8.20;99.90;;;;;;6221499;23;20103;-78
2021/12/13 06:05:00;;;;;;;20.65;10.90;;;8.20;99.90;;;;;;6193241;23;20388;-78
2021/12/13 06:07:35;;;;;;;21.70;11.10;;;8.20;99.90;;;;;;6217762;23;20090;-78
2021/12/13 06:10:07;;;;;;;19.73;10.63;;;8.10;99.90;;;;;;6218424;23;20061;-78
2021/12/13 06:12:44;;;;;;;20.75;11.35;;;8.20;99.90;;;;;;6220326;23;20016;-79
2021/12/13 06:15:16;;;;;;;23.02;11.27;;;8.20;99.90;;;;;;6219644;23;20409;-79
2021/12/13 06:18:03;;;;;;;19.13;11.00;;;8.20;99.90;;;;;;6194968;23;20385;-78
2021/12/13 06:20:30;;;;;;;18.20;12.27;;;8.20;99.90;;;;;;6194787;23;20138;-78
2021/12/13 06:23:30;;;;;;;21.15;11.60;;;8.20;99.90;;;;;;6220132;23;20019;-78
2021/12/13 06:26:04;;;;;;;19.88;12.07;;;8.20;99.90;;;;;;6197766;23;20023;-79
2021/12/13 06:28:34;;;;;;;20.05;11.25;;;8.20;99.90;;;;;;6222728;23;20373;-79
2021/12/13 06:31:13;;;;;;;23.02;12.85;;;8.20;99.90;;;;;;6223423;23;20015;-79
2021/12/13 06:33:53;;;;;;;19.73;13.40;;;8.20;99.90;;;;;;6222303;23;20012;-79
2021/12/13 06:36:29;;;;;;;21.90;14.10;;;8.20;99.90;;;;;;6224981;23;20453;-79
2021/12/13 06:38:57;;;;;;;23.58;14.07;;;8.20;99.90;;;;;;6225944;23;20066;-79
2021/12/13 06:41:26;;;;;;;22.85;14.25;;;8.20;99.90;;;;;;6224066;23;20086;-79
2021/12/13 06:44:01;;;;;;;24.48;14.13;;;8.20;99.90;;;;;;6200123;23;20012;-79
2021/12/13 06:46:26;;;;;;;22.52;13.45;;;8.20;99.90;;;;;;6199845;23;20027;-79
2021/12/13 06:49:05;;;;;;;21.73;13.90;;;8.20;99.90;;;;;;6201454;23;20016;-79
2021/12/13 06:52:06;;;;;;;24.27;15.20;;;8.20;99.90;;;;;;6225592;23;20068;-79
2021/12/13 06:54:48;;;;;;;21.38;14.85;;;8.20;99.90;;;;;;6199221;23;20050;-79
2021/12/13 06:57:20;;;;;;;20.45;14.55;;;8.20;99.90;;;;;;6199556;23;20012;-80
2021/12/13 06:59:48;;;;;;;27.52;15.98;;;8.20;99.90;;;;;;6223403;23;20020;-80
2021/12/13 07:02:17;;;;;;;26.60;15.38;;;8.20;99.90;;;;;;6224293;22;20061;-80
2021/12/13 07:04:52;;;;;;;26.23;15.00;;;8.20;99.90;;;;;;6223776;23;20066;-80
2021/12/13 07:07:20;;;;;;;24.98;15.65;;;8.20;99.90;;;;;;6198739;23;20341;-80
2021/12/13 07:09:54;;;;;;;22.63;14.93;;;8.20;99.90;;;;;;6225244;23;20066;-80
2021/12/13 07:12:22;;;;;;;23.77;15.13;;;8.20;99.90;;;;;;6223455;23;20023;-80
2021/12/13 07:14:49;;;;;;;21.27;15.00;;;8.20;99.90;;;;;;6174012;23;20016;-80
2021/12/13 07:17:39;;;;;;;25.30;17.13;;;8.20;99.90;;;;;;6199286;23;20059;-80
2021/12/13 07:20:15;;;;;;;25.00;16.50;;;8.20;99.90;;;;;;6222939;23;20074;-79
2021/12/13 07:22:42;;;;;;;26.90;17.42;;;8.20;99.90;;;;;;6221012;23;20047;-79
2021/12/13 07:25:12;;;;;;;26.10;16.63;;;8.20;99.90;;;;;;6197527;23;20012;-79
2021/12/13 07:27:47;;;;;;;23.50;16.40;;;8.20;99.90;;;;;;6220623;23;20441;-79
2021/12/13 07:30:22;;;;;;;29.00;16.90;;;8.20;99.90;;;;;;6221299;23;20417;-79
2021/12/13 07:33:00;;;;;;;21.98;15.45;;;8.10;99.90;;;;;;6221030;23;20090;-79
2021/12/13 07:35:43;;;;;;;30.55;18.05;;;8.10;99.90;;;;;;6219414;23;20061;-79
2021/12/13 07:38:18;;;;;;;26.35;16.98;;;8.20;99.90;;;;;;6220137;23;20012;-79
2021/12/13 07:40:51;;;;;;;25.08;17.25;;;8.20;99.90;;;;;;6193969;23;20019;-79
2021/12/13 07:43:27;;;;;;;28.20;17.42;;;8.20;99.90;;;;;;6221290;23;20008;-79
2021/12/13 07:46:00;;;;;;;23.70;16.67;;;8.20;99.90;;;;;;6215689;23;20024;-79
2021/12/13 07:48:29;;;;;;;23.65;15.95;;;8.20;99.90;;;;;;6190234;23;20052;-78
2021/12/13 07:51:10;;;;;;;25.85;16.55;;;8.20;99.90;;;;;;6189491;23;20016;-79
2021/12/13 07:53:51;;;;;;;23.42;16.00;;;8.20;99.90;;;;;;6190291;23;20021;-79
2021/12/13 07:56:24;;;;;;;26.00;16.50;;;8.20;99.90;;;;;;6194214;23;20019;-79
2021/12/13 07:58:57;;;;;;;25.17;16.98;;;8.30;99.90;;;;;;6218219;23;20446;-79
2021/12/13 08:01:27;;;;;;;24.63;16.05;;;8.30;99.90;;;;;;6191393;23;20020;-79
2021/12/13 08:04:13;;;;;;;27.98;16.10;;;8.30;99.90;;;;;;6194298;23;20020;-79
2021/12/13 08:06:48;;;;;;;25.40;15.77;;;8.30;99.90;;;;;;6195594;23;20016;-79
2021/12/13 08:09:19;;;;;;;;;;;8.30;99.90;;;;;;6195452;23;20039;-79
2021/12/13 08:11:54;;;;;;;24.52;15.07;;;8.30;99.90;;;;;;6173497;23;19916;-80
2021/12/13 08:14:39;;;;;;;26.25;15.48;;;8.30;99.90;;;;;;6191303;23;20020;-79
2021/12/13 08:17:19;;;;;;;21.02;14.57;;;8.30;99.90;;;;;;6195923;23;20008;-79
2021/12/13 08:20:07;;;;;;;23.90;15.63;;;8.30;99.90;;;;;;6196106;23;20446;-79
2021/12/13 08:22:34;;;;;;;23.95;15.35;;;8.40;99.90;;;;;;6121862;23;20445;-79
2021/12/13 08:25:14;;;;;;;22.55;15.52;;;8.40;99.90;;;;;;6194733;23;20023;-79
2021/12/13 08:27:47;;;;;;;22.92;15.27;;;8.40;99.90;;;;;;6193527;23;20027;-79
2021/12/13 08:30:18;;;;;;;20.90;14.63;;;8.40;99.90;;;;;;6191409;23;20028;-79
2021/12/13 08:32:58;;;;;;;21.05;14.50;;;8.40;99.90;;;;;;6218150;23;20063;-79
2021/12/13 08:35:24;;;;;;;21.40;14.60;;;8.40;99.90;;;;;;6194551;23;20078;-79
2021/12/13 08:37:59;;;;;;;25.33;15.37;;;8.40;99.90;;;;;;6169880;23;20067;-79
2021/12/13 08:40:30;;;;;;;23.20;14.50;;;8.40;99.90;;;;;;6218349;23;20047;-79
2021/12/13 08:42:58;;;;;;;19.35;14.00;;;8.40;99.90;;;;;;6193411;23;20012;-79
2021/12/13 08:45:39;;;;;;;23.42;14.98;;;8.50;99.90;;;;;;6195296;23;20453;-79
2021/12/13 08:48:20;;;;;;;22.55;13.55;;;8.40;99.90;;;;;;6173694;23;20055;-79
2021/12/13 08:50:53;;;;;;;20.83;13.95;;;8.40;99.90;;;;;;6197856;23;20012;-79
2021/12/13 08:53:24;;;;;;;18.20;13.27;;;8.40;99.90;;;;;;6198487;23;20083;-79
2021/12/13 08:56:00;;;;;;;20.38;13.48;;;8.40;99.90;;;;;;6195249;23;20016;-79
2021/12/13 08:58:28;;;;;;;19.17;13.07;;;8.40;99.90;;;;;;6194900;23;20028;-79
2021/12/13 09:01:19;;;;;;;19.60;14.20;;;8.40;99.90;;;;;;6171994;23;20044;-80
2021/12/13 09:03:48;;;;;;;18.73;12.55;;;8.40;99.90;;;;;;6196471;23;20016;-80
2021/12/13 09:06:17;;;;;;;20.60;13.70;;;8.40;99.90;;;;;;6196025;23;20887;-79
2021/12/13 09:09:15;;;;;;;19.02;13.07;;;8.50;99.90;;;;;;6195633;23;20417;-79
2021/12/13 09:11:56;;;;;;;18.75;12.55;;;8.40;99.90;;;;;;6220994;23;20369;-79
2021/12/13 09:14:40;;;;;;;22.77;13.07;;;8.50;99.90;;;;;;6222079;23;20361;-79
2021/12/13 09:17:12;;;;;;;19.08;12.63;;;8.50;99.90;;;;;;6222598;23;20535;-79
2021/12/13 09:19:52;;;;;;;19.10;11.90;;;8.40;99.90;;;;;;6194509;23;20021;-79
2021/12/13 09:22:32;;;;;;;17.73;12.32;;;8.50;99.90;;;;;;6195096;23;20062;-79
2021/12/13 09:25:04;;;;;;;18.15;12.95;;;8.40;99.90;;;;;;6195233;23;20042;-78
2021/12/13 09:27:54;;;;;;;20.00;12.82;;;8.50;99.90;;;;;;6189760;23;20020;-79
2021/12/13 09:30:27;;;;;;;16.35;11.95;;;8.50;99.90;;;;;;6192766;23;20027;-79
2021/12/13 09:33:01;;;;;;;19.85;12.60;;;8.50;99.90;;;;;;6194876;23;20012;-79
2021/12/13 09:36:01;;;;;;;18.50;12.35;;;8.50;99.90;;;;;;6195363;23;20051;-79
2021/12/13 09:38:34;;;;;;;19.65;12.93;;;8.50;99.90;;;;;;6170345;23;20351;-79
2021/12/13 09:41:33;;;;;;;16.88;11.70;;;8.50;99.90;;;;;;6194272;23;20017;-79
2021/12/13 09:44:08;;;;;;;20.08;12.23;;;8.50;99.90;;;;;;6180459;23;20017;-79
2021/12/13 09:46:58;;;;;;;18.92;12.13;;;8.50;99.90;;;;;;6197550;23;20017;-80
2021/12/13 09:49:38;;;;;;;19.52;11.95;;;8.50;99.90;;;;;;6198210;23;20357;-80
2021/12/13 09:52:55;;;;;;;18.13;11.88;;;8.50;99.90;;;;;;6198654;23;20017;-80
2021/12/13 09:55:34;;;;;;;18.55;12.20;;;8.50;99.90;;;;;;6110988;23;20112;-80
2021/12/13 09:58:14;;;;;;;20.73;12.68;;;8.50;99.90;;;;;;6137569;23;20017;-80
2021/12/13 10:00:51;;;;;;;23.23;13.43;;;8.60;99.90;;;;;;6166530;23;20043;-80
2021/12/13 10:03:31;;;;;;;15.80;12.07;;;8.60;99.90;;;;;;6226373;23;20047;-80
2021/12/13 10:06:05;;;;;;;18.35;12.90;;;8.70;99.90;;;;;;6201133;23;20023;-80
2021/12/13 10:08:53;;;;;;;19.05;13.35;;;8.70;99.90;;;;;;6197840;23;20024;-80
2021/12/13 10:11:31;;;;;;;19.30;12.77;;;8.70;99.90;;;;;;6194793;23;20091;-80
2021/12/13 10:13:57;;;;;;;18.70;13.07;;;8.70;99.90;;;;;;6197599;23;20493;-80
2021/12/13 10:16:32;;;;;;;25.15;14.73;;;8.70;99.90;;;;;;6174733;23;20032;-80
2021/12/13 10:18:59;;;;;;;21.98;13.88;;;8.60;99.90;;;;;;6198830;23;20497;-80
2021/12/13 10:21:31;;;;;;;22.55;15.13;;;8.70;99.90;;;;;;6195533;23;20013;-80
2021/12/13 10:24:08;;;;;;;23.52;14.70;;;8.70;99.90;;;;;;6195168;23;20017;-80
2021/12/13 10:26:38;;;;;;;22.55;15.27;;;8.70;99.90;;;;;;6195863;23;20009;-80
2021/12/13 10:29:07;;;;;;;24.85;14.88;;;8.60;99.90;;;;;;6194888;23;20009;-80
2021/12/13 10:31:45;;;;;;;23.75;14.77;;;8.60;99.90;;;;;;6220299;23;20044;-80
2021/12/13 10:34:16;;;;;;;24.85;15.15;;;8.60;99.90;;;;;;6221348;23;20123;-80
2021/12/13 10:36:46;;;;;;;25.75;16.73;;;8.60;99.90;;;;;;6195535;23;20012;-80
2021/12/13 10:39:19;;;;;;;23.33;15.73;;;8.60;99.90;;;;;;6195504;23;20040;-80
2021/12/13 10:41:47;;;;;;;21.95;15.20;;;8.70;99.90;;;;;;6194742;23;20012;-80
2021/12/13 10:44:26;;;;;;;25.58;17.02;;;8.70;99.90;;;;;;6195700;23;20040;-80
2021/12/13 10:46:55;;;;;;;29.67;17.25;;;8.80;99.90;;;;;;6220170;23;20048;-80
2021/12/13 10:49:26;;;;;;;28.25;16.58;;;8.80;99.90;;;;;;6171520;23;20012;-80
2021/12/13 10:52:05;;;;;;;28.38;17.52;;;8.80;99.90;;;;;;6195705;23;20340;-80
2021/12/13 10:54:38;;;;;;;25.75;17.52;;;8.90;99.90;;;;;;6196076;23;20051;-80
2021/12/13 10:57:10;;;;;;;29.63;17.67;;;8.90;99.90;;;;;;6220920;23;20024;-80
2021/12/13 10:59:36;;;;;;;26.23;17.80;;;9.00;99.90;;;;;;6194973;23;20044;-80
2021/12/13 11:02:09;;;;;;;27.83;18.27;;;9.10;99.90;;;;;;6171281;23;20013;-79
2021/12/13 11:04:43;;;;;;;29.98;18.10;;;9.10;99.90;;;;;;6219618;23;20016;-80
2021/12/13 11:07:11;;;;;;;29.92;18.23;;;9.20;99.90;;;;;;6221456;23;20016;-80
2021/12/13 11:09:41;;;;;;;28.88;18.33;;;9.20;99.90;;;;;;6169230;23;20021;-80
2021/12/13 11:12:15;;;;;;;32.33;19.23;;;9.20;99.90;;;;;;6219882;23;20031;-79
2021/12/13 11:14:47;;;;;;;28.42;18.65;;;9.20;99.90;;;;;;6194268;23;20446;-80
2021/12/13 11:17:18;;;;;;;33.50;19.23;;;9.20;99.90;;;;;;6218911;23;20017;-80
2021/12/13 11:19:47;;;;;;;27.75;18.80;;;9.20;99.90;;;;;;6193457;23;20100;-80
2021/12/13 11:22:20;;;;;;;29.00;18.35;;;9.20;99.90;;;;;;6220451;23;20020;-80
2021/12/13 11:24:52;;;;;;;32.37;19.20;;;9.20;99.90;;;;;;6194476;23;20020;-80
2021/12/13 11:27:22;;;;;;;35.97;20.03;;;9.20;99.90;;;;;;6195467;23;20287;-80
2021/12/13 11:29:50;;;;;;;31.87;19.63;;;9.20;99.90;;;;;;6194301;23;20259;-80
2021/12/13 11:32:37;;;;;;;33.07;21.00;;;9.20;99.90;;;;;;6169431;23;20637;-80
2021/12/13 11:35:15;;;;;;;36.00;21.23;;;9.30;99.90;;;;;;6219140;23;20614;-80
2021/12/13 11:38:14;;;;;;;34.60;20.97;;;9.30;99.90;;;;;;6194620;23;20672;-80
2021/12/13 11:41:06;;;;;;;35.42;19.20;;;9.30;99.90;;;;;;6194317;23;20250;-80
2021/12/13 11:44:03;;;;;;;32.15;19.58;;;9.30;99.90;;;;;;6219074;23;20012;-80
2021/12/13 11:46:55;;;;;;;32.23;18.83;;;9.30;99.90;;;;;;6194572;23;20021;-80
2021/12/13 11:49:48;;;;;;;29.47;18.47;;;9.40;99.90;;;;;;6193470;23;20327;-80
2021/12/13 11:52:37;;;;;;;29.10;18.07;;;9.40;99.90;;;;;;6193959;23;20341;-80
2021/12/13 11:55:29;;;;;;;30.80;17.60;;;9.50;99.90;;;;;;6195905;23;20317;-80
2021/12/13 11:58:01;;;;;;;26.17;15.87;;;9.50;99.90;;;;;;6193196;23;20704;-80
2021/12/13 12:01:16;;;;;;;28.13;16.43;;;9.60;99.90;;;;;;6219846;23;20243;-80
2021/12/13 12:04:07;;;;;;;25.00;15.87;;;9.60;99.90;;;;;;6181855;23;20271;-80
2021/12/13 12:07:18;;;;;;;25.30;15.87;;;9.60;99.90;;;;;;6193489;23;20239;-80
2021/12/13 12:10:32;;;;;;;25.77;16.40;;;9.60;99.90;;;;;;6159559;23;20243;-80
2021/12/13 12:13:15;;;;;;;27.33;16.07;;;9.60;99.90;;;;;;6115367;23;20241;-80
2021/12/13 12:15:45;;;;;;;26.37;17.70;;;9.60;99.90;;;;;;6193995;23;20272;-80
2021/12/13 12:18:17;;;;;;;30.50;18.13;;;9.60;99.90;;;;;;6193634;23;20759;-80
2021/12/13 12:20:48;;;;;;;25.33;15.43;;;9.70;99.90;;;;;;6193282;23;20243;-80
2021/12/13 12:23:30;;;;;;;26.50;16.63;;;9.80;99.90;;;;;;6193415;23;20254;-80
2021/12/13 12:25:58;;;;;;;25.43;16.10;;;9.80;99.90;;;;;;6218564;23;20252;-80
2021/12/13 12:28:26;;;;;;;22.97;16.00;;;9.80;99.90;;;;;;6194289;23;20252;-80
2021/12/13 12:30:57;;;;;;;22.97;14.37;;;9.90;99.90;;;;;;6169009;23;20783;-80
2021/12/13 12:33:37;;;;;;;23.80;15.00;;;9.80;99.90;;;;;;6194415;23;20240;-80
2021/12/13 12:36:35;;;;;;;24.77;14.73;;;9.80;99.90;;;;;;6192073;23;20268;-80
2021/12/13 12:39:04;;;;;;;24.50;14.27;;;9.90;99.90;;;;;;6192549;23;20244;-80
2021/12/13 12:41:36;;;;;;;19.17;13.50;;;9.90;99.90;;;;;;6193096;23;20378;-80
2021/12/13 12:44:02;;;;;;;23.67;14.50;;;9.90;99.90;;;;;;6192735;23;20596;-80
2021/12/13 12:46:31;;;;;;;26.03;15.60;;;9.90;99.90;;;;;;6218155;23;20321;-80
2021/12/13 12:48:58;;;;;;;24.30;15.13;;;9.90;99.90;;;;;;6191890;23;20262;-80
2021/12/13 12:51:27;;;;;;;25.27;14.27;;;9.90;99.90;;;;;;6217138;23;20247;-80
2021/12/13 12:54:25;;;;;;;23.37;15.30;;;9.90;99.90;;;;;;6190606;23;20267;-80
2021/12/13 12:56:53;;;;;;;25.03;15.40;;;9.90;99.90;;;;;;6118264;23;20746;-80
2021/12/13 12:59:23;;;;;;;26.73;16.00;;;9.90;99.90;;;;;;6190477;23;20236;-81
2021/12/13 13:01:59;;;;;;;25.90;16.03;;;9.90;99.90;;;;;;6191726;23;20235;-81
2021/12/13 13:04:35;;;;;;;25.43;17.07;;;9.90;99.90;;;;;;6190942;23;20705;-81
2021/12/13 13:07:10;;;;;;;30.30;16.57;;;9.80;99.90;;;;;;6191255;23;20236;-81
2021/12/13 13:09:42;;;;;;;26.30;15.95;;;9.80;99.90;;;;;;6189576;23;20240;-81
2021/12/13 13:12:14;;;;;;;26.40;16.77;;;9.80;99.90;;;;;;6190267;23;20016;-81
2021/12/13 13:14:46;;;;;;;27.57;17.30;;;9.80;99.90;;;;;;6213937;23;20270;-81
2021/12/13 13:17:13;;;;;;;28.47;17.73;;;9.80;99.90;;;;;;6188971;23;20248;-81
2021/12/13 13:19:43;;;;;;;28.40;16.83;;;9.80;99.90;;;;;;6163844;23;20240;-81
2021/12/13 13:22:17;;;;;;;27.60;17.67;;;9.80;99.90;;;;;;6191463;23;20244;-81
2021/12/13 13:24:50;;;;;;;28.10;17.07;;;9.80;99.90;;;;;;6191923;23;20247;-81
2021/12/13 13:27:17;;;;;;;24.63;16.80;;;9.80;99.90;;;;;;6191811;23;20247;-81
2021/12/13 13:29:44;;;;;;;28.87;16.23;;;9.80;99.90;;;;;;6190563;23;20311;-81